sensor_id;sensor_type;location;lat;lon;timestamp;P1;durP1;ratioP1;P2;durP2;ratioP2
56116;SDS011;41989;45.356;20.392;2023-05-29T00:01:34;14.90;;;12.52;;
56116;SDS011;41989;45.356;20.392;2023-05-29T00:04:01;14.13;;;11.25;;
56116;SDS011;41989;45.356;20.392;2023-05-29T00:06:27;13.07;;;11.38;;
56116;SDS011;41989;45.356;20.392;2023-05-29T00:08:54;14.77;;;11.88;;
56116;SDS011;41989;45.356;20.392;2023-05-29T00:11:20;20.00;;;13.50;;
56116;SDS011;41989;45.356;20.392;2023-05-29T00:13:48;71.30;;;54.65;;
56116;SDS011;41989;45.356;20.392;2023-05-29T00:16:14;59.05;;;50.65;;
56116;SDS011;41989;45.356;20.392;2023-05-29T00:18:42;41.38;;;34.88;;
56116;SDS011;41989;45.356;20.392;2023-05-29T00:21:11;41.15;;;34.22;;
56116;SDS011;41989;45.356;20.392;2023-05-29T00:23:41;95.75;;;75.93;;
56116;SDS011;41989;45.356;20.392;2023-05-29T00:26:07;109.10;;;90.85;;
56116;SDS011;41989;45.356;20.392;2023-05-29T00:28:34;124.55;;;93.97;;
56116;SDS011;41989;45.356;20.392;2023-05-29T00:31:01;82.47;;;65.10;;
56116;SDS011;41989;45.356;20.392;2023-05-29T00:33:27;52.90;;;40.40;;
56116;SDS011;41989;45.356;20.392;2023-05-29T00:35:53;24.60;;;16.50;;
56116;SDS011;41989;45.356;20.392;2023-05-29T00:38:20;19.00;;;11.15;;
56116;SDS011;41989;45.356;20.392;2023-05-29T00:40:46;13.65;;;9.77;;
56116;SDS011;41989;45.356;20.392;2023-05-29T00:43:12;17.20;;;9.90;;
56116;SDS011;41989;45.356;20.392;2023-05-29T00:45:38;14.27;;;9.60;;
56116;SDS011;41989;45.356;20.392;2023-05-29T00:48:05;14.48;;;9.05;;
56116;SDS011;41989;45.356;20.392;2023-05-29T00:50:31;15.35;;;9.63;;
56116;SDS011;41989;45.356;20.392;2023-05-29T00:52:58;15.43;;;10.20;;
56116;SDS011;41989;45.356;20.392;2023-05-29T00:55:26;14.43;;;10.40;;
56116;SDS011;41989;45.356;20.392;2023-05-29T00:57:52;15.35;;;9.82;;
56116;SDS011;41989;45.356;20.392;2023-05-29T01:00:19;16.45;;;10.30;;
56116;SDS011;41989;45.356;20.392;2023-05-29T01:02:45;14.48;;;9.55;;
56116;SDS011;41989;45.356;20.392;2023-05-29T01:05:12;16.85;;;9.77;;
56116;SDS011;41989;45.356;20.392;2023-05-29T01:07:40;11.52;;;8.65;;
56116;SDS011;41989;45.356;20.392;2023-05-29T01:10:06;18.20;;;10.13;;
56116;SDS011;41989;45.356;20.392;2023-05-29T01:23:06;12.80;;;9.82;;
56116;SDS011;41989;45.356;20.392;2023-05-29T01:28:16;18.92;;;9.55;;
56116;SDS011;41989;45.356;20.392;2023-05-29T01:30:44;13.15;;;10.18;;
56116;SDS011;41989;45.356;20.392;2023-05-29T01:33:10;13.70;;;10.07;;
56116;SDS011;41989;45.356;20.392;2023-05-29T01:35:37;20.50;;;10.95;;
56116;SDS011;41989;45.356;20.392;2023-05-29T01:38:03;18.23;;;10.68;;
56116;SDS011;41989;45.356;20.392;2023-05-29T01:40:29;18.65;;;11.60;;
56116;SDS011;41989;45.356;20.392;2023-05-29T01:42:55;18.45;;;10.93;;
56116;SDS011;41989;45.356;20.392;2023-05-29T01:45:21;18.08;;;11.20;;
56116;SDS011;41989;45.356;20.392;2023-05-29T01:47:48;17.60;;;11.25;;
56116;SDS011;41989;45.356;20.392;2023-05-29T01:50:15;17.10;;;11.77;;
56116;SDS011;41989;45.356;20.392;2023-05-29T01:52:41;19.25;;;11.38;;
56116;SDS011;41989;45.356;20.392;2023-05-29T01:55:08;18.65;;;12.25;;
56116;SDS011;41989;45.356;20.392;2023-05-29T01:57:34;17.92;;;13.27;;
56116;SDS011;41989;45.356;20.392;2023-05-29T02:00:02;16.27;;;12.70;;
56116;SDS011;41989;45.356;20.392;2023-05-29T02:02:35;17.73;;;13.02;;
56116;SDS011;41989;45.356;20.392;2023-05-29T02:05:02;19.70;;;13.57;;
56116;SDS011;41989;45.356;20.392;2023-05-29T02:07:28;19.23;;;14.35;;
56116;SDS011;41989;45.356;20.392;2023-05-29T02:09:57;26.52;;;14.10;;
56116;SDS011;41989;45.356;20.392;2023-05-29T02:12:23;20.77;;;13.93;;
56116;SDS011;41989;45.356;20.392;2023-05-29T02:14:49;23.83;;;13.93;;
56116;SDS011;41989;45.356;20.392;2023-05-29T02:17:15;27.17;;;17.80;;
56116;SDS011;41989;45.356;20.392;2023-05-29T02:19:44;32.78;;;22.15;;
56116;SDS011;41989;45.356;20.392;2023-05-29T02:22:10;49.28;;;23.50;;
56116;SDS011;41989;45.356;20.392;2023-05-29T02:24:36;88.00;;;55.70;;
56116;SDS011;41989;45.356;20.392;2023-05-29T02:27:02;65.55;;;48.42;;
56116;SDS011;41989;45.356;20.392;2023-05-29T02:29:28;69.90;;;47.78;;
56116;SDS011;41989;45.356;20.392;2023-05-29T02:31:54;97.55;;;74.85;;
56116;SDS011;41989;45.356;20.392;2023-05-29T02:34:21;125.32;;;96.63;;
56116;SDS011;41989;45.356;20.392;2023-05-29T02:36:50;105.60;;;85.30;;
56116;SDS011;41989;45.356;20.392;2023-05-29T02:39:17;67.80;;;48.65;;
56116;SDS011;41989;45.356;20.392;2023-05-29T02:41:44;44.40;;;35.50;;
56116;SDS011;41989;45.356;20.392;2023-05-29T02:44:10;36.50;;;23.15;;
56116;SDS011;41989;45.356;20.392;2023-05-29T02:46:36;27.70;;;21.80;;
56116;SDS011;41989;45.356;20.392;2023-05-29T02:49:02;32.40;;;19.65;;
56116;SDS011;41989;45.356;20.392;2023-05-29T02:51:28;32.58;;;21.13;;
56116;SDS011;41989;45.356;20.392;2023-05-29T02:53:55;31.70;;;22.15;;
56116;SDS011;41989;45.356;20.392;2023-05-29T02:56:21;44.88;;;29.05;;
56116;SDS011;41989;45.356;20.392;2023-05-29T02:58:49;62.55;;;43.45;;
56116;SDS011;41989;45.356;20.392;2023-05-29T03:01:15;88.40;;;66.13;;
56116;SDS011;41989;45.356;20.392;2023-05-29T03:03:42;138.73;;;102.18;;
56116;SDS011;41989;45.356;20.392;2023-05-29T03:06:08;123.85;;;90.78;;
56116;SDS011;41989;45.356;20.392;2023-05-29T03:08:35;85.03;;;63.92;;
56116;SDS011;41989;45.356;20.392;2023-05-29T03:11:10;78.80;;;58.05;;
56116;SDS011;41989;45.356;20.392;2023-05-29T03:13:36;52.80;;;40.90;;
56116;SDS011;41989;45.356;20.392;2023-05-29T03:16:03;59.13;;;40.97;;
56116;SDS011;41989;45.356;20.392;2023-05-29T03:18:29;64.05;;;44.20;;
56116;SDS011;41989;45.356;20.392;2023-05-29T03:20:55;60.60;;;41.10;;
56116;SDS011;41989;45.356;20.392;2023-05-29T03:23:21;51.78;;;34.72;;
56116;SDS011;41989;45.356;20.392;2023-05-29T03:25:48;38.67;;;26.27;;
56116;SDS011;41989;45.356;20.392;2023-05-29T03:28:14;42.10;;;24.55;;
56116;SDS011;41989;45.356;20.392;2023-05-29T03:30:40;30.90;;;21.27;;
56116;SDS011;41989;45.356;20.392;2023-05-29T03:33:06;31.42;;;21.58;;
56116;SDS011;41989;45.356;20.392;2023-05-29T03:35:35;28.88;;;21.25;;
56116;SDS011;41989;45.356;20.392;2023-05-29T03:38:01;33.83;;;21.92;;
56116;SDS011;41989;45.356;20.392;2023-05-29T03:40:28;32.63;;;21.17;;
56116;SDS011;41989;45.356;20.392;2023-05-29T03:42:54;35.45;;;22.00;;
56116;SDS011;41989;45.356;20.392;2023-05-29T03:45:20;32.15;;;21.33;;
56116;SDS011;41989;45.356;20.392;2023-05-29T03:47:46;35.13;;;21.15;;
56116;SDS011;41989;45.356;20.392;2023-05-29T03:50:12;32.38;;;20.77;;
56116;SDS011;41989;45.356;20.392;2023-05-29T03:52:40;31.70;;;20.77;;
56116;SDS011;41989;45.356;20.392;2023-05-29T03:55:08;33.45;;;20.67;;
56116;SDS011;41989;45.356;20.392;2023-05-29T03:57:38;29.73;;;19.00;;
56116;SDS011;41989;45.356;20.392;2023-05-29T04:00:06;26.25;;;19.65;;
56116;SDS011;41989;45.356;20.392;2023-05-29T04:02:32;24.40;;;18.80;;
56116;SDS011;41989;45.356;20.392;2023-05-29T04:04:59;32.00;;;19.75;;
56116;SDS011;41989;45.356;20.392;2023-05-29T04:07:25;40.85;;;26.10;;
56116;SDS011;41989;45.356;20.392;2023-05-29T04:09:51;45.13;;;33.30;;
56116;SDS011;41989;45.356;20.392;2023-05-29T04:12:17;39.65;;;25.55;;
56116;SDS011;41989;45.356;20.392;2023-05-29T04:14:43;28.60;;;20.48;;
56116;SDS011;41989;45.356;20.392;2023-05-29T04:17:09;25.60;;;19.15;;
56116;SDS011;41989;45.356;20.392;2023-05-29T04:19:35;30.27;;;19.77;;
56116;SDS011;41989;45.356;20.392;2023-05-29T04:22:01;28.95;;;20.52;;
56116;SDS011;41989;45.356;20.392;2023-05-29T04:24:27;29.50;;;19.45;;
56116;SDS011;41989;45.356;20.392;2023-05-29T04:26:53;29.77;;;18.80;;
56116;SDS011;41989;45.356;20.392;2023-05-29T04:29:19;28.98;;;20.10;;
56116;SDS011;41989;45.356;20.392;2023-05-29T04:31:45;34.60;;;20.55;;
56116;SDS011;41989;45.356;20.392;2023-05-29T04:34:12;29.40;;;18.83;;
56116;SDS011;41989;45.356;20.392;2023-05-29T04:36:42;27.95;;;18.95;;
56116;SDS011;41989;45.356;20.392;2023-05-29T04:39:08;31.67;;;21.13;;
56116;SDS011;41989;45.356;20.392;2023-05-29T04:41:34;28.63;;;21.23;;
56116;SDS011;41989;45.356;20.392;2023-05-29T04:44:03;30.40;;;18.65;;
56116;SDS011;41989;45.356;20.392;2023-05-29T04:46:29;30.40;;;18.48;;
56116;SDS011;41989;45.356;20.392;2023-05-29T04:48:55;22.88;;;16.73;;
56116;SDS011;41989;45.356;20.392;2023-05-29T04:51:21;29.05;;;16.67;;
56116;SDS011;41989;45.356;20.392;2023-05-29T04:53:48;21.63;;;16.33;;
56116;SDS011;41989;45.356;20.392;2023-05-29T04:56:14;28.40;;;17.60;;
56116;SDS011;41989;45.356;20.392;2023-05-29T04:58:41;26.40;;;17.98;;
56116;SDS011;41989;45.356;20.392;2023-05-29T05:01:07;40.92;;;31.13;;
56116;SDS011;41989;45.356;20.392;2023-05-29T05:03:34;38.88;;;24.15;;
56116;SDS011;41989;45.356;20.392;2023-05-29T05:06:01;45.63;;;27.35;;
56116;SDS011;41989;45.356;20.392;2023-05-29T05:08:28;52.58;;;40.63;;
56116;SDS011;41989;45.356;20.392;2023-05-29T05:10:54;47.28;;;38.05;;
56116;SDS011;41989;45.356;20.392;2023-05-29T05:13:21;46.10;;;32.22;;
56116;SDS011;41989;45.356;20.392;2023-05-29T05:15:50;37.33;;;26.85;;
56116;SDS011;41989;45.356;20.392;2023-05-29T05:18:16;39.45;;;22.40;;
56116;SDS011;41989;45.356;20.392;2023-05-29T05:20:42;29.05;;;16.35;;
56116;SDS011;41989;45.356;20.392;2023-05-29T05:23:08;23.33;;;14.35;;
56116;SDS011;41989;45.356;20.392;2023-05-29T05:25:36;25.92;;;13.20;;
56116;SDS011;41989;45.356;20.392;2023-05-29T05:28:03;23.38;;;13.40;;
56116;SDS011;41989;45.356;20.392;2023-05-29T05:30:29;26.25;;;13.20;;
56116;SDS011;41989;45.356;20.392;2023-05-29T05:32:55;23.30;;;17.38;;
56116;SDS011;41989;45.356;20.392;2023-05-29T05:35:21;29.33;;;20.17;;
56116;SDS011;41989;45.356;20.392;2023-05-29T05:37:47;21.65;;;12.93;;
56116;SDS011;41989;45.356;20.392;2023-05-29T05:40:13;24.63;;;13.07;;
56116;SDS011;41989;45.356;20.392;2023-05-29T05:42:39;18.83;;;12.40;;
56116;SDS011;41989;45.356;20.392;2023-05-29T05:45:06;16.98;;;12.35;;
56116;SDS011;41989;45.356;20.392;2023-05-29T05:47:32;21.23;;;13.15;;
56116;SDS011;41989;45.356;20.392;2023-05-29T05:49:58;27.75;;;18.35;;
56116;SDS011;41989;45.356;20.392;2023-05-29T05:52:24;23.88;;;15.00;;
56116;SDS011;41989;45.356;20.392;2023-05-29T05:54:55;23.65;;;11.77;;
56116;SDS011;41989;45.356;20.392;2023-05-29T05:57:24;19.00;;;11.32;;
56116;SDS011;41989;45.356;20.392;2023-05-29T05:59:50;22.83;;;11.98;;
56116;SDS011;41989;45.356;20.392;2023-05-29T06:02:17;23.02;;;13.38;;
56116;SDS011;41989;45.356;20.392;2023-05-29T06:04:43;22.70;;;13.07;;
56116;SDS011;41989;45.356;20.392;2023-05-29T06:07:09;19.60;;;11.98;;
56116;SDS011;41989;45.356;20.392;2023-05-29T06:09:36;24.02;;;15.73;;
56116;SDS011;41989;45.356;20.392;2023-05-29T06:12:02;22.98;;;15.90;;
56116;SDS011;41989;45.356;20.392;2023-05-29T06:14:28;29.83;;;17.05;;
56116;SDS011;41989;45.356;20.392;2023-05-29T06:16:54;19.23;;;13.02;;
56116;SDS011;41989;45.356;20.392;2023-05-29T06:19:21;18.30;;;11.65;;
56116;SDS011;41989;45.356;20.392;2023-05-29T06:21:47;21.83;;;13.13;;
56116;SDS011;41989;45.356;20.392;2023-05-29T06:24:13;16.67;;;9.30;;
56116;SDS011;41989;45.356;20.392;2023-05-29T06:26:39;16.40;;;9.70;;
56116;SDS011;41989;45.356;20.392;2023-05-29T06:29:06;18.85;;;9.88;;
56116;SDS011;41989;45.356;20.392;2023-05-29T06:31:32;17.10;;;8.10;;
56116;SDS011;41989;45.356;20.392;2023-05-29T06:33:59;15.70;;;7.50;;
56116;SDS011;41989;45.356;20.392;2023-05-29T06:36:25;9.55;;;6.47;;
56116;SDS011;41989;45.356;20.392;2023-05-29T06:38:51;9.88;;;6.75;;
56116;SDS011;41989;45.356;20.392;2023-05-29T06:41:17;20.65;;;7.72;;
56116;SDS011;41989;45.356;20.392;2023-05-29T06:43:44;12.20;;;6.70;;
56116;SDS011;41989;45.356;20.392;2023-05-29T06:46:10;10.20;;;6.40;;
56116;SDS011;41989;45.356;20.392;2023-05-29T06:48:37;9.57;;;7.25;;
56116;SDS011;41989;45.356;20.392;2023-05-29T06:51:03;13.27;;;7.15;;
56116;SDS011;41989;45.356;20.392;2023-05-29T06:53:40;13.45;;;7.28;;
56116;SDS011;41989;45.356;20.392;2023-05-29T06:56:06;13.32;;;7.72;;
56116;SDS011;41989;45.356;20.392;2023-05-29T06:58:33;11.68;;;7.65;;
56116;SDS011;41989;45.356;20.392;2023-05-29T07:00:59;12.65;;;6.63;;
56116;SDS011;41989;45.356;20.392;2023-05-29T07:03:26;13.38;;;7.28;;
56116;SDS011;41989;45.356;20.392;2023-05-29T07:05:55;11.82;;;7.10;;
56116;SDS011;41989;45.356;20.392;2023-05-29T07:08:24;9.68;;;6.60;;
56116;SDS011;41989;45.356;20.392;2023-05-29T07:10:50;11.68;;;6.63;;
56116;SDS011;41989;45.356;20.392;2023-05-29T07:13:16;17.77;;;6.68;;
56116;SDS011;41989;45.356;20.392;2023-05-29T07:15:43;11.50;;;6.28;;
56116;SDS011;41989;45.356;20.392;2023-05-29T07:18:09;9.55;;;5.50;;
56116;SDS011;41989;45.356;20.392;2023-05-29T07:20:36;10.40;;;4.80;;
56116;SDS011;41989;45.356;20.392;2023-05-29T07:23:02;6.90;;;4.45;;
56116;SDS011;41989;45.356;20.392;2023-05-29T07:25:31;16.07;;;5.57;;
56116;SDS011;41989;45.356;20.392;2023-05-29T07:27:57;9.00;;;3.90;;
56116;SDS011;41989;45.356;20.392;2023-05-29T07:30:24;7.32;;;3.88;;
56116;SDS011;41989;45.356;20.392;2023-05-29T07:32:50;6.22;;;3.67;;
56116;SDS011;41989;45.356;20.392;2023-05-29T07:35:16;7.68;;;3.90;;
56116;SDS011;41989;45.356;20.392;2023-05-29T07:37:42;12.50;;;4.35;;
56116;SDS011;41989;45.356;20.392;2023-05-29T07:40:13;8.35;;;4.18;;
56116;SDS011;41989;45.356;20.392;2023-05-29T07:42:39;5.10;;;3.38;;
56116;SDS011;41989;45.356;20.392;2023-05-29T07:45:05;8.85;;;3.95;;
56116;SDS011;41989;45.356;20.392;2023-05-29T07:47:31;11.52;;;3.72;;
56116;SDS011;41989;45.356;20.392;2023-05-29T07:49:57;6.70;;;3.03;;
56116;SDS011;41989;45.356;20.392;2023-05-29T07:52:23;7.30;;;4.38;;
56116;SDS011;41989;45.356;20.392;2023-05-29T07:54:50;5.80;;;3.03;;
56116;SDS011;41989;45.356;20.392;2023-05-29T07:57:16;7.97;;;3.22;;
56116;SDS011;41989;45.356;20.392;2023-05-29T07:59:42;7.13;;;3.60;;
56116;SDS011;41989;45.356;20.392;2023-05-29T08:02:08;6.70;;;3.95;;
56116;SDS011;41989;45.356;20.392;2023-05-29T08:04:35;9.27;;;4.15;;
56116;SDS011;41989;45.356;20.392;2023-05-29T08:07:02;4.53;;;3.35;;
56116;SDS011;41989;45.356;20.392;2023-05-29T08:09:31;4.85;;;3.67;;
56116;SDS011;41989;45.356;20.392;2023-05-29T08:11:57;7.35;;;3.78;;
56116;SDS011;41989;45.356;20.392;2023-05-29T08:14:25;8.63;;;4.35;;
56116;SDS011;41989;45.356;20.392;2023-05-29T08:16:52;7.80;;;3.80;;
56116;SDS011;41989;45.356;20.392;2023-05-29T08:19:18;5.35;;;3.38;;
56116;SDS011;41989;45.356;20.392;2023-05-29T08:21:47;6.72;;;4.60;;
56116;SDS011;41989;45.356;20.392;2023-05-29T08:24:13;7.10;;;3.53;;
56116;SDS011;41989;45.356;20.392;2023-05-29T08:26:39;4.45;;;3.50;;
56116;SDS011;41989;45.356;20.392;2023-05-29T08:29:06;7.13;;;3.88;;
56116;SDS011;41989;45.356;20.392;2023-05-29T08:31:35;7.50;;;4.05;;
56116;SDS011;41989;45.356;20.392;2023-05-29T08:34:01;7.10;;;3.60;;
56116;SDS011;41989;45.356;20.392;2023-05-29T08:36:27;7.13;;;4.30;;
56116;SDS011;41989;45.356;20.392;2023-05-29T08:38:53;8.18;;;3.97;;
56116;SDS011;41989;45.356;20.392;2023-05-29T08:41:37;6.43;;;3.92;;
56116;SDS011;41989;45.356;20.392;2023-05-29T08:44:07;4.85;;;3.70;;
56116;SDS011;41989;45.356;20.392;2023-05-29T08:46:33;5.93;;;4.13;;
56116;SDS011;41989;45.356;20.392;2023-05-29T08:49:00;5.97;;;3.72;;
56116;SDS011;41989;45.356;20.392;2023-05-29T08:51:27;8.40;;;3.90;;
56116;SDS011;41989;45.356;20.392;2023-05-29T08:53:57;5.20;;;3.75;;
56116;SDS011;41989;45.356;20.392;2023-05-29T08:56:23;7.28;;;3.90;;
56116;SDS011;41989;45.356;20.392;2023-05-29T08:58:50;6.38;;;3.80;;
56116;SDS011;41989;45.356;20.392;2023-05-29T09:01:17;5.65;;;3.60;;
56116;SDS011;41989;45.356;20.392;2023-05-29T09:03:45;10.15;;;4.18;;
56116;SDS011;41989;45.356;20.392;2023-05-29T09:06:12;7.25;;;3.70;;
56116;SDS011;41989;45.356;20.392;2023-05-29T09:08:38;5.60;;;3.60;;
56116;SDS011;41989;45.356;20.392;2023-05-29T09:11:04;6.43;;;3.70;;
56116;SDS011;41989;45.356;20.392;2023-05-29T09:13:30;6.78;;;4.55;;
56116;SDS011;41989;45.356;20.392;2023-05-29T09:15:59;5.30;;;3.55;;
56116;SDS011;41989;45.356;20.392;2023-05-29T09:18:30;8.20;;;3.80;;
56116;SDS011;41989;45.356;20.392;2023-05-29T09:20:58;7.45;;;3.50;;
56116;SDS011;41989;45.356;20.392;2023-05-29T09:23:25;4.90;;;3.83;;
56116;SDS011;41989;45.356;20.392;2023-05-29T09:25:52;9.65;;;3.97;;
56116;SDS011;41989;45.356;20.392;2023-05-29T09:28:19;8.02;;;4.65;;
56116;SDS011;41989;45.356;20.392;2023-05-29T09:33:15;7.25;;;4.18;;
56116;SDS011;41989;45.356;20.392;2023-05-29T09:35:42;5.80;;;3.90;;
56116;SDS011;41989;45.356;20.392;2023-05-29T09:38:09;6.00;;;3.72;;
56116;SDS011;41989;45.356;20.392;2023-05-29T09:40:36;7.32;;;4.00;;
56116;SDS011;41989;45.356;20.392;2023-05-29T09:43:09;7.75;;;4.45;;
56116;SDS011;41989;45.356;20.392;2023-05-29T09:45:42;6.45;;;4.07;;
56116;SDS011;41989;45.356;20.392;2023-05-29T09:48:12;6.30;;;4.32;;
56116;SDS011;41989;45.356;20.392;2023-05-29T09:53:05;8.45;;;4.97;;
56116;SDS011;41989;45.356;20.392;2023-05-29T09:55:42;7.45;;;4.20;;
56116;SDS011;41989;45.356;20.392;2023-05-29T09:58:09;9.07;;;4.25;;
56116;SDS011;41989;45.356;20.392;2023-05-29T10:00:37;10.95;;;4.32;;
56116;SDS011;41989;45.356;20.392;2023-05-29T10:03:04;6.65;;;4.20;;
56116;SDS011;41989;45.356;20.392;2023-05-29T10:05:30;6.93;;;3.95;;
56116;SDS011;41989;45.356;20.392;2023-05-29T10:07:56;5.30;;;4.20;;
56116;SDS011;41989;45.356;20.392;2023-05-29T10:10:23;6.93;;;4.35;;
56116;SDS011;41989;45.356;20.392;2023-05-29T10:12:51;7.78;;;4.78;;
56116;SDS011;41989;45.356;20.392;2023-05-29T10:15:18;8.60;;;4.70;;
56116;SDS011;41989;45.356;20.392;2023-05-29T10:17:57;7.30;;;4.60;;
56116;SDS011;41989;45.356;20.392;2023-05-29T10:20:24;8.13;;;4.07;;
56116;SDS011;41989;45.356;20.392;2023-05-29T10:22:52;6.10;;;3.65;;
56116;SDS011;41989;45.356;20.392;2023-05-29T10:25:20;11.55;;;5.15;;
56116;SDS011;41989;45.356;20.392;2023-05-29T10:27:47;6.05;;;4.07;;
56116;SDS011;41989;45.356;20.392;2023-05-29T10:33:31;10.27;;;4.28;;
56116;SDS011;41989;45.356;20.392;2023-05-29T10:38:28;8.32;;;4.20;;
56116;SDS011;41989;45.356;20.392;2023-05-29T10:40:54;6.90;;;4.38;;
56116;SDS011;41989;45.356;20.392;2023-05-29T10:43:34;8.43;;;4.15;;
56116;SDS011;41989;45.356;20.392;2023-05-29T10:46:00;7.32;;;4.30;;
56116;SDS011;41989;45.356;20.392;2023-05-29T10:50:54;8.43;;;3.88;;
56116;SDS011;41989;45.356;20.392;2023-05-29T10:53:25;7.20;;;4.43;;
56116;SDS011;41989;45.356;20.392;2023-05-29T10:55:52;6.75;;;4.13;;
56116;SDS011;41989;45.356;20.392;2023-05-29T10:58:18;8.68;;;3.95;;
56116;SDS011;41989;45.356;20.392;2023-05-29T11:00:45;5.63;;;3.97;;
56116;SDS011;41989;45.356;20.392;2023-05-29T11:03:15;4.68;;;3.85;;
56116;SDS011;41989;45.356;20.392;2023-05-29T11:08:53;6.13;;;4.05;;
56116;SDS011;41989;45.356;20.392;2023-05-29T11:11:29;8.43;;;4.50;;
56116;SDS011;41989;45.356;20.392;2023-05-29T11:14:03;5.15;;;3.83;;
56116;SDS011;41989;45.356;20.392;2023-05-29T11:18:57;4.50;;;4.00;;
56116;SDS011;41989;45.356;20.392;2023-05-29T11:23:51;8.73;;;4.18;;
56116;SDS011;41989;45.356;20.392;2023-05-29T11:26:19;6.78;;;3.20;;
56116;SDS011;41989;45.356;20.392;2023-05-29T11:28:45;7.65;;;3.45;;
56116;SDS011;41989;45.356;20.392;2023-05-29T11:31:14;4.95;;;3.60;;
56116;SDS011;41989;45.356;20.392;2023-05-29T11:36:10;4.88;;;2.97;;
56116;SDS011;41989;45.356;20.392;2023-05-29T11:38:36;6.05;;;3.70;;
56116;SDS011;41989;45.356;20.392;2023-05-29T11:41:02;3.97;;;3.22;;
56116;SDS011;41989;45.356;20.392;2023-05-29T11:43:29;6.88;;;3.72;;
56116;SDS011;41989;45.356;20.392;2023-05-29T11:45:55;6.20;;;3.38;;
56116;SDS011;41989;45.356;20.392;2023-05-29T11:48:21;9.10;;;3.05;;
56116;SDS011;41989;45.356;20.392;2023-05-29T11:50:48;5.90;;;2.97;;
56116;SDS011;41989;45.356;20.392;2023-05-29T11:53:15;5.22;;;3.20;;
56116;SDS011;41989;45.356;20.392;2023-05-29T11:55:41;5.05;;;3.65;;
56116;SDS011;41989;45.356;20.392;2023-05-29T11:58:07;5.88;;;3.78;;
56116;SDS011;41989;45.356;20.392;2023-05-29T12:00:37;4.47;;;2.65;;
56116;SDS011;41989;45.356;20.392;2023-05-29T12:03:05;5.22;;;2.80;;
56116;SDS011;41989;45.356;20.392;2023-05-29T12:05:32;10.55;;;3.42;;
56116;SDS011;41989;45.356;20.392;2023-05-29T12:07:59;6.63;;;3.28;;
56116;SDS011;41989;45.356;20.392;2023-05-29T12:10:26;5.82;;;3.42;;
56116;SDS011;41989;45.356;20.392;2023-05-29T12:12:53;4.03;;;2.97;;
56116;SDS011;41989;45.356;20.392;2023-05-29T12:15:19;5.10;;;2.75;;
56116;SDS011;41989;45.356;20.392;2023-05-29T12:17:47;4.88;;;3.10;;
56116;SDS011;41989;45.356;20.392;2023-05-29T12:20:13;8.30;;;3.42;;
56116;SDS011;41989;45.356;20.392;2023-05-29T12:22:40;4.97;;;3.33;;
56116;SDS011;41989;45.356;20.392;2023-05-29T12:27:33;7.68;;;2.90;;
56116;SDS011;41989;45.356;20.392;2023-05-29T12:30:07;5.38;;;3.10;;
56116;SDS011;41989;45.356;20.392;2023-05-29T12:32:37;6.75;;;4.70;;
56116;SDS011;41989;45.356;20.392;2023-05-29T12:37:41;4.57;;;3.38;;
56116;SDS011;41989;45.356;20.392;2023-05-29T12:40:14;3.67;;;2.75;;
56116;SDS011;41989;45.356;20.392;2023-05-29T12:42:41;5.63;;;3.97;;
56116;SDS011;41989;45.356;20.392;2023-05-29T12:45:07;5.93;;;4.53;;
56116;SDS011;41989;45.356;20.392;2023-05-29T12:47:35;7.43;;;4.25;;
56116;SDS011;41989;45.356;20.392;2023-05-29T12:50:14;8.48;;;4.05;;
56116;SDS011;41989;45.356;20.392;2023-05-29T12:52:41;9.57;;;3.92;;
56116;SDS011;41989;45.356;20.392;2023-05-29T12:55:07;6.38;;;4.30;;
56116;SDS011;41989;45.356;20.392;2023-05-29T12:57:36;7.38;;;4.47;;
56116;SDS011;41989;45.356;20.392;2023-05-29T13:00:08;5.18;;;3.80;;
56116;SDS011;41989;45.356;20.392;2023-05-29T13:02:35;10.25;;;4.78;;
56116;SDS011;41989;45.356;20.392;2023-05-29T13:05:02;6.43;;;4.60;;
56116;SDS011;41989;45.356;20.392;2023-05-29T13:07:28;10.80;;;4.97;;
56116;SDS011;41989;45.356;20.392;2023-05-29T13:09:55;8.23;;;4.28;;
56116;SDS011;41989;45.356;20.392;2023-05-29T13:12:21;8.57;;;4.93;;
56116;SDS011;41989;45.356;20.392;2023-05-29T13:14:47;11.10;;;4.85;;
56116;SDS011;41989;45.356;20.392;2023-05-29T13:17:13;10.48;;;4.90;;
56116;SDS011;41989;45.356;20.392;2023-05-29T13:19:39;6.95;;;4.45;;
56116;SDS011;41989;45.356;20.392;2023-05-29T13:22:06;10.68;;;5.10;;
56116;SDS011;41989;45.356;20.392;2023-05-29T13:24:32;6.68;;;4.32;;
56116;SDS011;41989;45.356;20.392;2023-05-29T13:26:58;21.20;;;7.57;;
56116;SDS011;41989;45.356;20.392;2023-05-29T13:29:25;14.18;;;7.15;;
56116;SDS011;41989;45.356;20.392;2023-05-29T13:31:52;16.88;;;5.28;;
56116;SDS011;41989;45.356;20.392;2023-05-29T13:34:18;13.98;;;5.57;;
56116;SDS011;41989;45.356;20.392;2023-05-29T13:36:44;12.15;;;4.80;;
56116;SDS011;41989;45.356;20.392;2023-05-29T13:39:10;10.18;;;4.65;;
56116;SDS011;41989;45.356;20.392;2023-05-29T13:41:39;9.10;;;5.28;;
56116;SDS011;41989;45.356;20.392;2023-05-29T13:44:05;15.73;;;4.80;;
56116;SDS011;41989;45.356;20.392;2023-05-29T13:46:31;10.73;;;4.35;;
56116;SDS011;41989;45.356;20.392;2023-05-29T13:48:57;11.43;;;5.80;;
56116;SDS011;41989;45.356;20.392;2023-05-29T13:51:23;10.60;;;5.22;;
56116;SDS011;41989;45.356;20.392;2023-05-29T13:53:50;13.55;;;6.35;;
56116;SDS011;41989;45.356;20.392;2023-05-29T13:56:16;26.00;;;10.23;;
56116;SDS011;41989;45.356;20.392;2023-05-29T13:58:42;24.88;;;12.43;;
56116;SDS011;41989;45.356;20.392;2023-05-29T14:01:08;28.95;;;16.70;;
56116;SDS011;41989;45.356;20.392;2023-05-29T14:03:36;33.50;;;14.75;;
56116;SDS011;41989;45.356;20.392;2023-05-29T14:06:05;17.02;;;8.15;;
56116;SDS011;41989;45.356;20.392;2023-05-29T14:08:31;9.90;;;5.88;;
56116;SDS011;41989;45.356;20.392;2023-05-29T14:10:58;9.25;;;5.00;;
56116;SDS011;41989;45.356;20.392;2023-05-29T14:13:24;8.65;;;5.10;;
56116;SDS011;41989;45.356;20.392;2023-05-29T14:15:50;7.63;;;4.50;;
56116;SDS011;41989;45.356;20.392;2023-05-29T14:18:16;8.70;;;6.35;;
56116;SDS011;41989;45.356;20.392;2023-05-29T14:20:42;17.00;;;14.10;;
56116;SDS011;41989;45.356;20.392;2023-05-29T14:23:12;24.88;;;22.02;;
56116;SDS011;41989;45.356;20.392;2023-05-29T14:25:40;31.80;;;28.35;;
56116;SDS011;41989;45.356;20.392;2023-05-29T14:28:07;36.25;;;29.45;;
56116;SDS011;41989;45.356;20.392;2023-05-29T14:30:33;22.27;;;18.73;;
56116;SDS011;41989;45.356;20.392;2023-05-29T14:32:59;13.75;;;9.48;;
56116;SDS011;41989;45.356;20.392;2023-05-29T14:35:25;9.02;;;6.50;;
56116;SDS011;41989;45.356;20.392;2023-05-29T14:37:51;7.32;;;6.60;;
56116;SDS011;41989;45.356;20.392;2023-05-29T14:40:17;10.90;;;6.13;;
56116;SDS011;41989;45.356;20.392;2023-05-29T14:42:43;9.38;;;7.22;;
56116;SDS011;41989;45.356;20.392;2023-05-29T14:45:09;19.38;;;10.80;;
56116;SDS011;41989;45.356;20.392;2023-05-29T14:47:36;18.10;;;9.82;;
56116;SDS011;41989;45.356;20.392;2023-05-29T14:50:02;14.80;;;8.02;;
56116;SDS011;41989;45.356;20.392;2023-05-29T14:52:28;22.52;;;8.52;;
56116;SDS011;41989;45.356;20.392;2023-05-29T14:54:55;36.20;;;20.55;;
56116;SDS011;41989;45.356;20.392;2023-05-29T14:57:21;19.50;;;14.23;;
56116;SDS011;41989;45.356;20.392;2023-05-29T14:59:47;20.00;;;17.83;;
56116;SDS011;41989;45.356;20.392;2023-05-29T15:02:14;27.75;;;22.65;;